createdAt,value
2022-09-07T00:03:06.065Z,55.41
2022-09-07T00:08:09.250Z,58.97
2022-09-07T00:13:12.030Z,60.45
2022-09-07T00:18:14.934Z,67.75
2022-09-07T00:23:17.764Z,60.50
2022-09-07T00:28:20.635Z,55.38
2022-09-07T00:33:23.431Z,57.29
2022-09-07T00:38:26.735Z,58.69
2022-09-07T00:43:36.269Z,67.59
2022-09-07T00:49:02.879Z,60.67
2022-09-07T00:54:21.348Z,55.78
2022-09-07T00:59:31.780Z,60.41
2022-09-07T01:04:36.860Z,67.16
2022-09-07T01:09:40.832Z,58.59
2022-09-07T01:14:50.396Z,56.76
2022-09-07T01:20:30.436Z,59.34
2022-09-07T01:26:04.129Z,61.14
2022-09-07T01:31:54.810Z,70.54
2022-09-07T01:37:21.890Z,58.70
2022-09-07T01:42:56.850Z,56.79
2022-09-07T01:48:06.233Z,61.01
2022-09-07T01:53:26.043Z,67.44
2022-09-07T01:58:41.029Z,58.28
2022-09-07T02:03:54.376Z,57.29
2022-09-07T02:09:03.575Z,60.75
2022-09-07T02:14:14.747Z,67.33
2022-09-07T02:19:20.934Z,58.61
2022-09-07T02:24:39.172Z,56.16
2022-09-07T02:29:43.940Z,60.32
2022-09-07T02:34:46.716Z,67.15
2022-09-07T02:39:49.785Z,58.58
2022-09-07T02:44:52.877Z,56.27
2022-09-07T02:50:13.838Z,59.75
2022-09-07T02:55:34.483Z,61.60
2022-09-07T03:01:12.936Z,69.97
2022-09-07T03:06:25.824Z,59.77
2022-09-07T03:11:30.134Z,56.09
2022-09-07T03:16:33.571Z,60.03
2022-09-07T03:21:36.383Z,67.25
2022-09-07T03:26:43.791Z,58.34
2022-09-07T03:31:46.923Z,56.50
2022-09-07T03:36:49.648Z,58.90
2022-09-07T03:41:52.746Z,63.30
2022-09-07T03:46:55.554Z,67.29
2022-09-07T03:51:58.401Z,56.12
2022-09-07T03:57:01.145Z,54.39
2022-09-07T04:02:04.189Z,57.12
2022-09-07T04:07:07.184Z,59.53
2022-09-07T04:12:09.954Z,65.75
2022-09-07T04:17:13.228Z,62.38
2022-09-07T04:22:16.193Z,54.88
2022-09-07T04:27:18.933Z,58.13
2022-09-07T04:32:22.304Z,60.19
2022-09-07T04:37:25.137Z,67.79
2022-09-07T04:42:27.941Z,58.73
2022-09-07T04:47:31.242Z,56.61
2022-09-07T04:52:33.976Z,60.37
2022-09-07T04:57:37.262Z,60.25
2022-09-07T05:02:40.078Z,66.65
2022-09-07T05:07:43.228Z,58.81
2022-09-07T05:12:45.958Z,54.90
2022-09-07T05:17:50.278Z,57.74
2022-09-07T05:22:59.739Z,60.08
2022-09-07T05:28:04.141Z,60.43
2022-09-07T05:33:08.281Z,68.30
2022-09-07T05:38:11.104Z,57.87
2022-09-07T05:43:13.940Z,54.41
2022-09-07T05:48:16.733Z,57.02
2022-09-07T05:53:20.775Z,59.63
2022-09-07T05:58:23.654Z,55.91
2022-09-07T06:03:26.597Z,46.74
2022-09-07T06:08:30.274Z,39.54
2022-09-07T06:13:33.805Z,34.63
2022-09-07T06:18:39.550Z,33.25
2022-09-07T06:23:43.625Z,30.05
2022-09-07T06:28:50.126Z,27.67
2022-09-07T06:33:55.040Z,28.20
2022-09-07T06:39:01.570Z,31.75
2022-09-07T06:44:04.401Z,35.26
2022-09-07T06:49:07.287Z,37.94
2022-09-07T06:59:33.010Z,41.76
2022-09-07T07:04:40.484Z,44.25
2022-09-07T07:09:44.893Z,45.23
2022-09-07T07:14:47.931Z,45.76
2022-09-07T07:19:50.793Z,44.81
2022-09-07T07:24:57.222Z,38.73
2022-09-07T07:30:00.289Z,31.89
2022-09-07T07:35:03.589Z,27.26
2022-09-07T07:40:18.529Z,24.36
2022-09-07T07:50:57.825Z,20.19
2022-09-07T07:56:02.445Z,20.04
2022-09-07T08:01:09.190Z,18.88
2022-09-07T08:06:15.190Z,17.95
2022-09-07T08:11:20.371Z,17.33
2022-09-07T08:16:23.359Z,17.77
2022-09-07T08:21:26.456Z,18.13
2022-09-07T08:26:30.838Z,18.51
2022-09-07T08:31:33.683Z,16.92
2022-09-07T08:36:36.518Z,17.57
2022-09-07T08:41:57.591Z,17.61
2022-09-07T08:47:04.503Z,17.53
2022-09-07T08:52:45.975Z,17.61
2022-09-07T08:57:57.947Z,19.21
2022-09-07T09:08:50.700Z,17.88
2022-09-07T09:14:19.028Z,18.38
2022-09-07T09:19:35.732Z,21.43
2022-09-07T09:24:47.156Z,23.67
2022-09-07T09:29:53.355Z,25.65
2022-09-07T09:35:13.403Z,26.51
2022-09-07T09:40:26.278Z,26.92
2022-09-07T09:46:12.252Z,28.46
2022-09-07T09:56:22.971Z,30.87
2022-09-07T10:01:35.137Z,30.54
2022-09-07T10:06:38.689Z,30.91
2022-09-07T10:12:06.275Z,31.79
2022-09-07T10:17:25.597Z,32.75
2022-09-07T10:22:36.524Z,32.91
2022-09-07T10:27:40.926Z,33.08
2022-09-07T10:33:17.179Z,33.78
2022-09-07T10:38:26.216Z,34.25
2022-09-07T10:43:48.485Z,34.37
2022-09-07T10:49:06.460Z,33.77
2022-09-07T10:54:35.317Z,34.65
2022-09-07T11:00:12.500Z,35.26
2022-09-07T11:05:36.059Z,35.38
2022-09-07T11:10:52.764Z,35.35
2022-09-07T11:16:00.627Z,35.88
2022-09-07T11:21:12.237Z,35.81
2022-09-07T11:26:55.765Z,36.45
2022-09-07T11:32:15.537Z,36.50
2022-09-07T11:37:37.563Z,36.36
2022-09-07T11:42:48.226Z,36.82
2022-09-07T11:47:57.963Z,36.51
2022-09-07T11:53:28.739Z,36.47
2022-09-07T11:58:56.382Z,36.62
2022-09-07T12:04:15.464Z,36.94
2022-09-07T12:09:50.982Z,36.85
2022-09-07T12:15:13.198Z,36.48
2022-09-07T12:20:18.776Z,36.13
2022-09-07T12:25:22.038Z,36.84
2022-09-07T12:30:24.828Z,36.58
2022-09-07T12:35:28.304Z,36.37
2022-09-07T12:40:34.075Z,36.36
2022-09-07T12:45:36.755Z,36.58
2022-09-07T12:50:59.114Z,35.99
2022-09-07T12:56:16.408Z,35.33
2022-09-07T13:01:40.663Z,35.12
2022-09-07T13:07:05.309Z,35.38
2022-09-07T13:17:56.077Z,35.03
2022-09-07T13:23:25.636Z,36.59
2022-09-07T13:28:52.291Z,35.26
2022-09-07T13:33:57.154Z,35.48
2022-09-07T13:39:00.250Z,36.02
2022-09-07T13:44:06.774Z,35.53
2022-09-07T13:49:27.506Z,35.22
2022-09-07T13:54:56.621Z,34.69
2022-09-07T13:59:59.611Z,35.92
2022-09-07T14:05:04.945Z,36.31
2022-09-07T14:10:20.053Z,35.86
2022-09-07T14:15:25.773Z,36.05
2022-09-07T14:20:29.078Z,36.08
2022-09-07T14:26:15.920Z,35.88
2022-09-07T14:30:55.077Z,35.66
2022-09-07T14:35:59.359Z,36.32
2022-09-07T14:41:06.999Z,35.90
2022-09-07T14:46:18.180Z,36.12
2022-09-07T14:51:32.734Z,35.56
2022-09-07T14:56:40.974Z,35.84
2022-09-07T15:01:46.911Z,36.40
2022-09-07T15:07:05.565Z,36.48
2022-09-07T15:12:29.740Z,36.33
2022-09-07T15:17:42.947Z,37.83
2022-09-07T15:22:46.251Z,38.41
2022-09-07T15:27:49.180Z,38.62
2022-09-07T15:32:52.563Z,38.90
2022-09-07T15:38:04.285Z,38.97
2022-09-07T15:43:20.029Z,39.28
2022-09-07T15:48:25.248Z,40.14
2022-09-07T15:58:55.494Z,40.36
2022-09-07T16:04:00.440Z,40.24
2022-09-07T16:09:06.220Z,40.15
2022-09-07T16:14:12.659Z,40.58
2022-09-07T16:19:20.105Z,40.66
2022-09-07T16:24:23.257Z,41.22
2022-09-07T16:29:26.138Z,41.41
2022-09-07T16:34:29.743Z,41.81
2022-09-07T16:39:33.017Z,42.13
2022-09-07T16:44:35.833Z,42.72
2022-09-07T16:49:39.216Z,43.13
2022-09-07T16:54:42.245Z,43.70
2022-09-07T16:59:45.310Z,43.29
2022-09-07T17:04:48.172Z,43.56
2022-09-07T17:09:50.982Z,43.57
2022-09-07T17:14:54.106Z,44.02
2022-09-07T17:19:58.319Z,44.50
2022-09-07T17:25:01.048Z,45.33
2022-09-07T17:30:06.626Z,45.91
2022-09-07T17:35:10.427Z,45.36
2022-09-07T17:40:13.255Z,46.32
2022-09-07T17:45:16.197Z,46.90
2022-09-07T17:50:18.985Z,47.72
2022-09-07T17:55:22.460Z,46.89
2022-09-07T18:00:25.820Z,47.23
2022-09-07T18:05:28.661Z,48.61
2022-09-07T18:15:58.834Z,49.36
2022-09-07T18:21:03.391Z,50.47
2022-09-07T18:26:10.460Z,49.87
2022-09-07T18:31:13.330Z,49.89
2022-09-07T18:36:16.089Z,51.48
2022-09-07T18:41:20.389Z,51.89
2022-09-07T18:46:25.557Z,51.29
2022-09-07T18:51:30.909Z,52.38
2022-09-07T18:56:33.837Z,51.81
2022-09-07T19:01:38.160Z,52.08
2022-09-07T19:06:42.488Z,53.04
2022-09-07T19:11:45.298Z,53.55
2022-09-07T19:16:48.146Z,53.35
2022-09-07T19:21:53.529Z,52.79
2022-09-07T19:27:00.171Z,53.43
2022-09-07T19:32:08.004Z,54.64
2022-09-07T19:37:12.629Z,54.38
2022-09-07T19:42:15.467Z,55.24
2022-09-07T19:47:18.877Z,55.35
2022-09-07T19:52:23.491Z,56.65
2022-09-07T19:57:28.866Z,58.52
2022-09-07T20:02:31.781Z,59.56
2022-09-07T20:07:34.749Z,59.63
2022-09-07T20:12:37.518Z,62.62
2022-09-07T20:17:40.691Z,63.30
2022-09-07T20:22:43.441Z,54.33
2022-09-07T20:27:46.219Z,55.36
2022-09-07T20:32:49.370Z,56.05
2022-09-07T20:37:52.213Z,56.93
2022-09-07T20:42:55.193Z,58.35
2022-09-07T20:48:00.067Z,58.79
2022-09-07T20:53:04.389Z,59.81
2022-09-07T20:58:07.365Z,61.13
2022-09-07T21:03:10.684Z,67.34
2022-09-07T21:08:14.380Z,55.48
2022-09-07T21:13:17.691Z,55.14
2022-09-07T21:18:20.438Z,58.50
2022-09-07T21:23:24.303Z,59.61
2022-09-07T21:28:28.131Z,58.47
2022-09-07T21:33:35.321Z,58.58
2022-09-07T21:38:39.595Z,58.88
2022-09-07T21:43:42.450Z,59.91
2022-09-07T21:48:46.621Z,60.28
2022-09-07T21:53:58.230Z,60.28
2022-09-07T21:59:02.466Z,69.31
2022-09-07T22:04:07.117Z,60.75
2022-09-07T22:09:10.016Z,53.65
2022-09-07T22:14:13.764Z,56.25
2022-09-07T22:19:16.781Z,56.92
2022-09-07T22:24:19.524Z,57.38
2022-09-07T22:29:22.349Z,59.14
2022-09-07T22:34:25.131Z,58.84
2022-09-07T22:39:29.335Z,59.61
2022-09-07T22:44:32.860Z,59.93
2022-09-07T22:49:36.204Z,60.39
2022-09-07T22:54:38.951Z,60.43
2022-09-07T22:59:41.680Z,60.75
2022-09-07T23:04:45.118Z,61.07
2022-09-07T23:09:48.473Z,69.05
2022-09-07T23:14:51.227Z,59.74
2022-09-07T23:19:53.945Z,53.76
2022-09-07T23:24:56.695Z,55.36
2022-09-07T23:29:59.478Z,58.00
2022-09-07T23:35:03.523Z,60.23
2022-09-07T23:40:08.697Z,66.77
2022-09-07T23:45:11.477Z,56.55
2022-09-07T23:50:14.601Z,55.68
2022-09-07T23:55:17.488Z,58.20
